Time;durP1;ratioP1;P1;durP2;ratioP2;P2;SDS_P1;SDS_P2;PMS_P1;PMS_P2;Temp;Humidity;BMP_temperature;BMP_pressure;BME280_temperature;BME280_humidity;BME280_pressure;Samples;Min_cycle;Max_cycle;Signal;HPM_P1;HPM_P2
2023/05/25 00:01:27;;;;;;;9.02;2.45;;;12.70;99.90;;;;;;5032914;28;20017;-57
2023/05/25 00:03:54;;;;;;;7.95;2.70;;;12.60;99.90;;;;;;5032982;28;20323;-56
2023/05/25 00:06:20;;;;;;;5.32;2.25;;;12.60;99.90;;;;;;5032947;28;20029;-54
2023/05/25 00:08:46;;;;;;;2.63;1.85;;;12.50;99.90;;;;;;5032996;28;20081;-53
2023/05/25 00:11:13;;;;;;;3.85;2.33;;;12.50;99.90;;;;;;5032630;28;20432;-59
2023/05/25 00:13:39;;;;;;;7.28;2.22;;;12.40;99.90;;;;;;5032901;28;20017;-60
2023/05/25 00:16:05;;;;;;;5.45;2.67;;;12.40;99.90;;;;;;5032460;28;20389;-47
2023/05/25 00:18:32;;;;;;;5.20;2.42;;;12.40;99.90;;;;;;5032752;28;20014;-53
2023/05/25 00:21:04;;;;;;;3.83;1.92;;;12.30;99.90;;;;;;5032579;28;20468;-52
2023/05/25 00:23:30;;;;;;;7.10;2.53;;;12.20;99.90;;;;;;5032553;28;20021;-53
2023/05/25 00:25:56;;;;;;;4.13;2.15;;;12.20;99.90;;;;;;5032331;28;20447;-53
2023/05/25 00:28:21;;;;;;;3.40;1.67;;;12.10;99.90;;;;;;5032608;28;20040;-51
2023/05/25 00:30:47;;;;;;;10.40;2.65;;;12.10;99.90;;;;;;5032251;28;20022;-58
2023/05/25 00:33:13;;;;;;;6.53;2.15;;;12.00;99.90;;;;;;5032473;28;20032;-55
2023/05/25 00:35:41;;;;;;;4.35;2.05;;;12.00;99.90;;;;;;5032218;28;20548;-54
2023/05/25 00:38:15;;;;;;;3.92;2.03;;;11.90;99.90;;;;;;5032138;28;20033;-55
2023/05/25 00:40:41;;;;;;;4.05;2.45;;;11.90;99.90;;;;;;5032242;28;20484;-51
2023/05/25 00:43:12;;;;;;;10.27;2.35;;;11.90;99.90;;;;;;5032188;28;20073;-51
2023/05/25 00:45:38;;;;;;;3.28;2.83;;;11.80;99.90;;;;;;5030586;28;20025;-54
2023/05/25 00:48:05;;;;;;;10.95;2.50;;;11.90;99.90;;;;;;5032103;28;20033;-46
2023/05/25 00:50:33;;;;;;;6.65;1.77;;;11.80;99.90;;;;;;5032141;28;20021;-55
2023/05/25 00:53:00;;;;;;;4.78;2.00;;;11.80;99.90;;;;;;5031973;28;20060;-51
2023/05/25 00:55:28;;;;;;;4.75;1.95;;;11.80;99.90;;;;;;5031756;28;20512;-56
2023/05/25 00:57:56;;;;;;;9.07;2.80;;;11.80;99.90;;;;;;5032106;28;20029;-57
2023/05/25 01:00:23;;;;;;;5.45;2.67;;;11.70;99.90;;;;;;5031590;28;20052;-56
2023/05/25 01:02:51;;;;;;;13.00;2.67;;;11.70;99.90;;;;;;5025695;28;20050;-53
2023/05/25 01:05:18;;;;;;;3.85;2.08;;;11.70;99.90;;;;;;5024502;28;20132;-50
2023/05/25 01:07:44;;;;;;;3.70;2.00;;;11.70;99.90;;;;;;5031621;28;20156;-57
2023/05/25 01:10:13;;;;;;;3.55;2.13;;;11.70;99.90;;;;;;5031693;28;20360;-59
2023/05/25 01:12:41;;;;;;;3.67;1.67;;;11.70;99.90;;;;;;5031642;28;20025;-61
2023/05/25 01:15:08;;;;;;;5.13;2.63;;;11.70;99.90;;;;;;5031220;28;20044;-47
2023/05/25 01:17:36;;;;;;;4.85;2.35;;;11.70;99.90;;;;;;5031136;28;20384;-57
2023/05/25 01:20:05;;;;;;;4.20;2.28;;;11.60;99.90;;;;;;5031446;28;20036;-49
2023/05/25 01:22:37;;;;;;;5.10;2.53;;;11.60;99.90;;;;;;5031492;28;20021;-49
2023/05/25 01:25:08;;;;;;;4.88;2.50;;;11.50;99.90;;;;;;5031545;28;20026;-60
2023/05/25 01:27:45;;;;;;;4.65;2.28;;;11.50;99.90;;;;;;5031425;28;20048;-57
2023/05/25 01:30:14;;;;;;;10.55;2.13;;;11.50;99.90;;;;;;5031333;28;20100;-44
2023/05/25 01:32:42;;;;;;;3.53;2.13;;;11.50;99.90;;;;;;5031338;28;20108;-54
2023/05/25 01:35:08;;;;;;;5.93;2.72;;;11.50;99.90;;;;;;5031391;28;20030;-47
2023/05/25 01:37:36;;;;;;;8.45;1.83;;;11.50;99.90;;;;;;5031126;28;20518;-50
2023/05/25 01:40:04;;;;;;;4.82;2.50;;;11.40;99.90;;;;;;5031067;28;20492;-47
2023/05/25 01:42:30;;;;;;;3.42;1.95;;;11.50;99.90;;;;;;5031294;28;20079;-53
2023/05/25 01:44:57;;;;;;;5.82;2.75;;;11.50;99.90;;;;;;5030801;28;20485;-47
2023/05/25 01:47:30;;;;;;;5.03;2.25;;;11.40;99.90;;;;;;5031221;28;20073;-49
2023/05/25 01:50:03;;;;;;;10.20;2.92;;;11.50;99.90;;;;;;5031109;28;20076;-45
2023/05/25 01:52:34;;;;;;;4.80;2.80;;;11.40;99.90;;;;;;5031051;28;20029;-53
2023/05/25 01:55:07;;;;;;;6.70;3.22;;;11.40;99.90;;;;;;5031003;28;20103;-58
2023/05/25 01:57:36;;;;;;;2.60;1.88;;;11.40;99.90;;;;;;5026442;28;20021;-53
2023/05/25 02:00:03;;;;;;;4.85;2.42;;;11.30;99.90;;;;;;5030890;28;20472;-50
2023/05/25 02:02:31;;;;;;;6.25;3.17;;;11.30;99.90;;;;;;5030686;28;20064;-52
2023/05/25 02:04:58;;;;;;;3.10;1.95;;;11.20;99.90;;;;;;5030755;28;20092;-56
2023/05/25 02:07:24;;;;;;;3.40;2.10;;;11.20;99.90;;;;;;5030772;28;20094;-51
2023/05/25 02:09:50;;;;;;;3.00;1.58;;;11.20;99.90;;;;;;5030802;28;20508;-55
2023/05/25 02:12:15;;;;;;;6.50;2.53;;;11.20;99.90;;;;;;5030640;28;20026;-58
2023/05/25 02:14:41;;;;;;;5.78;2.63;;;11.10;99.90;;;;;;5030333;28;20037;-56
2023/05/25 02:17:07;;;;;;;5.82;2.15;;;11.10;99.90;;;;;;5030506;28;20392;-56
2023/05/25 02:19:34;;;;;;;8.50;2.35;;;11.10;99.90;;;;;;5030567;28;20102;-50
2023/05/25 02:22:00;;;;;;;4.75;2.53;;;11.10;99.90;;;;;;5030604;28;20028;-60
2023/05/25 02:24:26;;;;;;;6.00;3.05;;;11.00;99.90;;;;;;5028708;28;20021;-52
2023/05/25 02:26:51;;;;;;;4.28;2.28;;;11.10;99.90;;;;;;5029679;28;20030;-58
2023/05/25 02:29:17;;;;;;;5.05;2.65;;;11.00;99.90;;;;;;5030575;28;20026;-48
2023/05/25 02:31:43;;;;;;;3.17;2.17;;;11.00;99.90;;;;;;5030321;28;20221;-62
2023/05/25 02:34:08;;;;;;;4.90;2.60;;;11.00;99.90;;;;;;5030475;28;20037;-57
2023/05/25 02:36:35;;;;;;;5.00;2.70;;;11.00;99.90;;;;;;5029138;28;20021;-52
2023/05/25 02:39:00;;;;;;;3.50;2.13;;;11.00;99.90;;;;;;5030608;28;20033;-58
2023/05/25 02:41:26;;;;;;;5.57;2.45;;;10.90;99.90;;;;;;5030342;28;20396;-56
2023/05/25 02:43:52;;;;;;;4.13;2.38;;;10.90;99.90;;;;;;5030554;28;20676;-60
2023/05/25 02:46:19;;;;;;;4.65;2.70;;;10.90;99.90;;;;;;5030172;28;20091;-57
2023/05/25 02:48:45;;;;;;;6.68;3.17;;;10.90;99.90;;;;;;5030458;28;20025;-55
2023/05/25 02:51:11;;;;;;;9.05;2.45;;;10.90;99.90;;;;;;5030420;28;20029;-58
2023/05/25 02:53:37;;;;;;;5.85;3.47;;;10.90;99.90;;;;;;5030374;28;20033;-51
2023/05/25 02:56:04;;;;;;;6.70;2.60;;;10.90;99.90;;;;;;5030540;28;20400;-60
2023/05/25 02:58:30;;;;;;;7.55;3.70;;;10.90;99.90;;;;;;5028877;28;20408;-56
2023/05/25 03:00:58;;;;;;;6.03;2.85;;;10.90;99.90;;;;;;5029981;28;20034;-45
2023/05/25 03:03:24;;;;;;;5.10;2.55;;;10.90;99.90;;;;;;5030162;28;20120;-46
2023/05/25 03:05:51;;;;;;;8.68;2.92;;;10.90;99.90;;;;;;5029970;28;20038;-46
2023/05/25 03:08:16;;;;;;;7.82;2.78;;;10.90;99.90;;;;;;5030079;28;20514;-61
2023/05/25 03:10:42;;;;;;;4.57;2.70;;;10.90;99.90;;;;;;5030098;28;20349;-46
2023/05/25 03:13:07;;;;;;;5.85;2.65;;;10.80;99.90;;;;;;5030102;28;20053;-54
2023/05/25 03:15:33;;;;;;;11.98;3.22;;;10.70;99.90;;;;;;5029964;28;20106;-61
2023/05/25 03:18:00;;;;;;;5.53;2.17;;;10.70;99.90;;;;;;5030625;28;20060;-49
2023/05/25 03:20:26;;;;;;;7.72;2.72;;;10.60;99.90;;;;;;5030008;28;20044;-52
2023/05/25 03:22:53;;;;;;;9.70;2.45;;;10.60;99.90;;;;;;5030095;28;20036;-61
2023/05/25 03:25:19;;;;;;;6.95;2.67;;;10.60;99.90;;;;;;5029946;28;20021;-61
2023/05/25 03:27:44;;;;;;;4.45;2.03;;;10.60;99.90;;;;;;5030187;28;20397;-53
2023/05/25 03:30:11;;;;;;;2.15;1.75;;;10.50;99.90;;;;;;5030042;28;20418;-58
2023/05/25 03:32:36;;;;;;;5.55;3.13;;;10.50;99.90;;;;;;5029702;28;20053;-51
2023/05/25 03:35:03;;;;;;;5.93;2.30;;;10.50;99.90;;;;;;5030037;28;20064;-49
2023/05/25 03:37:29;;;;;;;3.40;1.85;;;10.50;99.90;;;;;;5031644;28;20492;-43
2023/05/25 03:39:55;;;;;;;5.10;2.60;;;10.40;99.90;;;;;;5033526;28;20029;-55
2023/05/25 03:42:20;;;;;;;4.72;2.70;;;10.40;99.90;;;;;;5033371;28;20025;-45
2023/05/25 03:44:46;;;;;;;4.45;2.22;;;10.40;99.90;;;;;;5033377;28;20037;-51
2023/05/25 03:47:12;;;;;;;7.88;2.95;;;10.40;99.90;;;;;;5033071;28;20091;-52
2023/05/25 03:49:39;;;;;;;7.78;2.92;;;10.40;99.90;;;;;;5031905;28;20046;-51
2023/05/25 03:52:05;;;;;;;2.67;1.48;;;10.30;99.90;;;;;;5033150;28;20096;-50
2023/05/25 03:54:31;;;;;;;13.40;3.28;;;10.30;99.90;;;;;;5033191;28;20099;-54
2023/05/25 03:56:58;;;;;;;7.43;2.90;;;10.30;99.90;;;;;;5033286;28;20392;-53
2023/05/25 03:59:24;;;;;;;4.15;2.17;;;10.20;99.90;;;;;;5033188;28;20103;-51
2023/05/25 04:01:50;;;;;;;6.70;3.00;;;10.30;99.90;;;;;;5032559;28;20480;-43
2023/05/25 04:04:16;;;;;;;6.50;2.80;;;10.30;99.90;;;;;;5032898;28;20065;-50
2023/05/25 04:06:44;;;;;;;3.50;2.47;;;10.30;99.90;;;;;;5032693;28;20076;-50
2023/05/25 04:09:10;;;;;;;9.93;3.70;;;10.30;99.90;;;;;;5032751;28;20485;-49
2023/05/25 04:11:36;;;;;;;5.97;3.15;;;10.30;99.90;;;;;;5032825;28;20029;-50
2023/05/25 04:14:02;;;;;;;8.80;3.30;;;10.40;99.90;;;;;;5032706;28;20018;-53
2023/05/25 04:16:28;;;;;;;6.45;2.92;;;10.40;99.90;;;;;;5032514;28;20025;-54
2023/05/25 04:18:54;;;;;;;8.82;3.85;;;10.40;99.90;;;;;;5032705;28;20487;-54
2023/05/25 04:21:20;;;;;;;5.20;3.50;;;10.50;99.90;;;;;;5032598;28;20022;-45
2023/05/25 04:23:46;;;;;;;6.50;3.20;;;10.50;99.90;;;;;;5032593;28;20551;-56
2023/05/25 04:26:12;;;;;;;10.52;3.15;;;10.60;99.90;;;;;;5032651;28;20037;-53
2023/05/25 04:28:39;;;;;;;7.65;3.13;;;10.50;99.90;;;;;;5032486;28;20404;-59
2023/05/25 04:31:06;;;;;;;7.82;3.00;;;10.50;99.90;;;;;;5032191;28;20018;-51
2023/05/25 04:33:33;;;;;;;5.43;2.38;;;10.60;99.90;;;;;;5032362;28;20026;-51
2023/05/25 04:35:59;;;;;;;5.75;3.58;;;10.60;99.90;;;;;;5032506;28;20104;-61
2023/05/25 04:38:25;;;;;;;3.88;2.75;;;10.60;99.90;;;;;;5032477;28;20104;-54
2023/05/25 04:40:55;;;;;;;8.82;2.22;;;10.60;99.90;;;;;;5032220;28;20146;-46
2023/05/25 04:43:20;;;;;;;7.80;3.83;;;10.60;99.90;;;;;;5032312;28;20028;-61
2023/05/25 04:45:46;;;;;;;6.00;2.13;;;10.70;99.90;;;;;;5031887;28;20033;-58
2023/05/25 04:48:12;;;;;;;3.15;2.03;;;10.70;99.90;;;;;;5031490;28;20014;-62
2023/05/25 04:50:41;;;;;;;12.27;3.30;;;10.80;99.90;;;;;;5032038;28;20357;-55
2023/05/25 04:53:07;;;;;;;6.35;2.20;;;10.90;99.90;;;;;;5032281;28;20022;-54
2023/05/25 04:55:33;;;;;;;5.72;3.45;;;11.00;99.90;;;;;;5031978;28;20041;-57
2023/05/25 04:57:59;;;;;;;4.22;2.75;;;11.10;99.90;;;;;;5031907;28;20097;-58
2023/05/25 05:00:25;;;;;;;5.18;2.95;;;11.20;99.90;;;;;;5031874;28;20132;-59
2023/05/25 05:02:51;;;;;;;6.03;3.10;;;11.30;99.90;;;;;;5031806;28;20441;-58
2023/05/25 05:05:17;;;;;;;3.08;2.30;;;11.40;99.90;;;;;;5031701;28;20049;-45
2023/05/25 05:07:43;;;;;;;11.73;3.85;;;11.50;99.90;;;;;;5032081;28;20033;-57
2023/05/25 05:10:08;;;;;;;12.60;2.88;;;11.60;99.90;;;;;;5031550;28;20029;-60
2023/05/25 05:12:34;;;;;;;6.40;2.40;;;11.70;99.90;;;;;;5031847;28;20166;-55
2023/05/25 05:14:59;;;;;;;12.02;2.80;;;11.90;99.90;;;;;;5031476;28;20021;-56
2023/05/25 05:17:26;;;;;;;10.13;2.90;;;12.00;99.90;;;;;;5031566;28;20040;-57
2023/05/25 05:19:52;;;;;;;5.63;3.22;;;12.10;99.90;;;;;;5031646;28;20033;-57
2023/05/25 05:22:18;;;;;;;6.07;2.92;;;12.20;99.90;;;;;;5031563;28;20033;-55
2023/05/25 05:24:44;;;;;;;12.70;4.13;;;12.30;99.90;;;;;;5031342;28;20057;-53
2023/05/25 05:27:12;;;;;;;5.78;3.17;;;12.40;99.90;;;;;;5031607;28;20037;-57
2023/05/25 05:29:38;;;;;;;9.80;2.97;;;12.50;99.90;;;;;;5031336;28;20022;-53
2023/05/25 05:32:04;;;;;;;5.65;3.08;;;12.60;99.90;;;;;;5030966;28;20059;-61
2023/05/25 05:34:30;;;;;;;8.30;3.95;;;12.60;99.90;;;;;;5031064;28;20013;-57
2023/05/25 05:36:55;;;;;;;6.53;3.00;;;12.70;99.90;;;;;;5031221;28;20037;-58
2023/05/25 05:39:21;;;;;;;5.55;2.88;;;12.70;99.90;;;;;;5031117;28;20021;-52
2023/05/25 05:41:47;;;;;;;4.82;2.90;;;12.70;99.90;;;;;;5027472;28;20026;-60
2023/05/25 05:44:12;;;;;;;6.72;2.53;;;12.80;99.90;;;;;;5030940;28;20034;-47
2023/05/25 05:46:38;;;;;;;5.05;3.15;;;12.80;99.90;;;;;;5030658;28;20029;-51
2023/05/25 05:49:04;;;;;;;7.53;2.95;;;12.90;99.90;;;;;;5031259;28;20060;-57
2023/05/25 05:51:29;;;;;;;4.78;2.72;;;13.00;99.90;;;;;;5030660;28;20029;-51
2023/05/25 05:53:55;;;;;;;3.55;2.63;;;13.00;99.90;;;;;;5030806;28;20018;-51
2023/05/25 05:56:21;;;;;;;9.15;2.55;;;13.10;99.90;;;;;;5030661;28;20024;-53
2023/05/25 05:58:48;;;;;;;5.03;2.47;;;13.20;99.90;;;;;;5030956;28;20028;-44
2023/05/25 06:01:16;;;;;;;4.90;2.53;;;13.30;99.90;;;;;;5030241;28;20427;-47
2023/05/25 06:03:42;;;;;;;7.38;3.30;;;13.40;99.90;;;;;;5030580;28;20044;-44
2023/05/25 06:06:08;;;;;;;5.05;2.20;;;13.50;99.90;;;;;;5030559;28;20499;-45
2023/05/25 06:08:34;;;;;;;5.57;1.92;;;13.60;99.90;;;;;;5030282;28;20033;-45
2023/05/25 06:10:59;;;;;;;4.10;2.47;;;13.70;99.90;;;;;;5030280;28;20080;-49
2023/05/25 06:13:25;;;;;;;3.20;1.83;;;13.80;99.90;;;;;;5030419;28;20021;-54
2023/05/25 06:15:50;;;;;;;6.78;2.78;;;13.90;99.90;;;;;;5030574;28;20497;-55
2023/05/25 06:18:16;;;;;;;2.83;1.42;;;14.10;99.90;;;;;;5030585;28;20029;-52
2023/05/25 06:20:42;;;;;;;4.25;1.38;;;14.40;99.90;;;;;;5030895;28;20029;-52
2023/05/25 06:23:10;;;;;;;5.50;3.10;;;14.70;99.90;;;;;;5030384;28;20040;-47
2023/05/25 06:25:35;;;;;;;4.43;2.00;;;15.20;99.90;;;;;;5030664;28;20040;-49
2023/05/25 06:28:01;;;;;;;6.07;2.75;;;15.90;99.90;;;;;;5030475;28;20038;-55
2023/05/25 06:30:27;;;;;;;6.30;2.03;;;16.60;99.90;;;;;;5030366;28;20447;-52
2023/05/25 06:32:52;;;;;;;5.53;2.67;;;17.40;99.90;;;;;;5030735;28;20372;-55
2023/05/25 06:35:18;;;;;;;3.22;1.40;;;18.30;99.90;;;;;;5030695;28;20028;-48
2023/05/25 06:37:48;;;;;;;4.05;2.17;;;19.00;99.90;;;;;;5029101;28;20607;-53
2023/05/25 06:40:15;;;;;;;2.10;1.02;;;19.90;99.90;;;;;;5030471;28;20072;-48
2023/05/25 06:42:41;;;;;;;4.63;1.38;;;20.30;99.90;;;;;;5030362;28;20022;-52
2023/05/25 06:45:08;;;;;;;3.75;0.93;;;21.00;99.90;;;;;;5030215;28;20036;-53
2023/05/25 06:47:34;;;;;;;2.63;1.00;;;21.50;99.90;;;;;;5030337;28;20088;-53
2023/05/25 06:50:00;;;;;;;1.35;0.77;;;21.80;99.90;;;;;;5030358;28;20017;-46
2023/05/25 06:52:29;;;;;;;4.47;1.27;;;21.90;99.90;;;;;;5030138;28;20029;-55
2023/05/25 06:54:55;;;;;;;1.38;0.80;;;22.10;99.90;;;;;;5030141;28;20071;-46
2023/05/25 06:57:22;;;;;;;1.40;0.70;;;22.50;99.90;;;;;;5029725;28;20053;-58
2023/05/25 06:59:48;;;;;;;2.08;0.93;;;22.80;98.10;;;;;;5029995;28;20029;-49
2023/05/25 07:02:13;;;;;;;4.07;0.93;;;22.80;96.20;;;;;;5029940;28;20026;-45
2023/05/25 07:04:39;;;;;;;1.50;0.68;;;23.00;98.80;;;;;;5030037;28;20558;-56
2023/05/25 07:07:05;;;;;;;1.02;0.70;;;23.10;97.40;;;;;;5030042;28;20133;-45
2023/05/25 07:09:31;;;;;;;1.65;0.80;;;23.40;96.90;;;;;;5030070;28;20049;-56
2023/05/25 07:11:57;;;;;;;1.08;0.60;;;23.60;95.00;;;;;;5030989;28;20435;-49
2023/05/25 07:14:23;;;;;;;2.13;0.60;;;23.00;92.60;;;;;;5033883;28;20022;-51
2023/05/25 07:16:48;;;;;;;1.17;0.50;;;23.30;94.00;;;;;;5033783;28;20014;-46
2023/05/25 07:19:14;;;;;;;1.38;0.77;;;23.50;93.00;;;;;;5033433;28;20021;-42
2023/05/25 07:21:40;;;;;;;1.33;0.60;;;23.70;94.20;;;;;;5033846;28;20065;-56
2023/05/25 07:24:05;;;;;;;4.63;0.85;;;24.00;91.10;;;;;;5033635;28;20056;-50
2023/05/25 07:26:32;;;;;;;2.47;0.70;;;24.50;89.90;;;;;;5033247;28;20519;-52
2023/05/25 07:28:58;;;;;;;1.23;0.60;;;25.00;87.20;;;;;;5033565;28;20026;-52
2023/05/25 07:31:23;;;;;;;1.35;0.55;;;25.40;86.80;;;;;;5033649;28;20021;-54
2023/05/25 07:33:49;;;;;;;2.88;0.90;;;25.80;82.90;;;;;;5033567;28;20503;-52
2023/05/25 07:36:15;;;;;;;1.10;0.43;;;25.50;76.80;;;;;;5033468;28;20029;-62
2023/05/25 07:38:41;;;;;;;0.95;0.50;;;25.10;75.50;;;;;;5033355;28;20022;-46
2023/05/25 07:41:07;;;;;;;1.38;0.75;;;24.70;75.40;;;;;;5033189;28;20555;-53
2023/05/25 07:43:32;;;;;;;0.93;0.60;;;25.30;81.90;;;;;;5022468;28;20025;-53
2023/05/25 07:46:01;;;;;;;1.23;0.50;;;25.80;77.30;;;;;;5021945;28;20048;-53
2023/05/25 07:48:27;;;;;;;0.85;0.50;;;26.00;75.70;;;;;;5033129;28;20032;-61
2023/05/25 07:50:52;;;;;;;0.32;0.32;;;25.60;72.60;;;;;;5033144;28;20029;-53
2023/05/25 07:53:18;;;;;;;0.85;0.60;;;25.50;71.90;;;;;;5033023;28;20018;-50
2023/05/25 07:55:43;;;;;;;3.00;0.70;;;25.30;81.40;;;;;;5032472;28;20038;-44
2023/05/25 07:58:09;;;;;;;3.38;0.90;;;25.60;76.10;;;;;;5032280;28;20108;-55
2023/05/25 08:00:35;;;;;;;2.58;0.75;;;24.50;67.00;;;;;;5031949;28;20067;-47
2023/05/25 08:03:03;;;;;;;1.00;0.68;;;24.20;72.70;;;;;;5031094;28;20026;-42
2023/05/25 08:05:29;;;;;;;0.60;0.40;;;24.60;76.90;;;;;;5032105;28;20120;-44
2023/05/25 08:07:54;;;;;;;1.23;0.63;;;25.20;77.20;;;;;;5032076;28;20133;-41
2023/05/25 08:10:20;;;;;;;1.65;0.60;;;25.50;69.70;;;;;;5032579;28;20021;-42
2023/05/25 08:12:45;;;;;;;1.15;0.40;;;24.90;73.30;;;;;;5032710;28;20571;-46
2023/05/25 08:15:12;;;;;;;2.92;0.63;;;24.60;71.90;;;;;;5032496;28;20096;-43
2023/05/25 08:17:38;;;;;;;2.75;0.82;;;23.50;67.80;;;;;;5032507;28;20025;-45
2023/05/25 08:20:09;;;;;;;0.95;0.60;;;23.10;73.90;;;;;;5032466;28;20087;-50
2023/05/25 08:22:35;;;;;;;2.28;1.05;;;22.80;73.40;;;;;;5032196;28;20041;-46
2023/05/25 08:25:02;;;;;;;2.65;0.90;;;22.40;73.40;;;;;;5031531;28;20018;-54
2023/05/25 08:27:28;;;;;;;1.35;0.70;;;21.80;75.30;;;;;;5032522;28;20037;-46
2023/05/25 08:29:54;;;;;;;0.55;0.50;;;22.00;77.20;;;;;;5032604;28;20543;-48
2023/05/25 08:32:19;;;;;;;3.60;1.20;;;23.00;87.90;;;;;;5028334;28;20044;-49
2023/05/25 08:34:45;;;;;;;0.70;0.50;;;23.50;85.20;;;;;;5020476;28;20033;-44
2023/05/25 08:37:11;;;;;;;1.55;0.70;;;23.50;76.00;;;;;;5032237;28;20111;-46
2023/05/25 08:39:36;;;;;;;1.90;0.57;;;23.00;75.60;;;;;;5029682;28;20032;-52
2023/05/25 08:42:02;;;;;;;2.97;0.60;;;22.60;78.60;;;;;;5032170;28;20068;-43
2023/05/25 08:44:28;;;;;;;0.57;0.50;;;22.70;79.10;;;;;;5031987;28;20530;-43
2023/05/25 08:46:55;;;;;;;1.23;0.63;;;22.60;81.90;;;;;;5032054;28;20026;-41
2023/05/25 08:49:22;;;;;;;4.00;0.73;;;22.40;81.00;;;;;;5032171;28;20051;-41
2023/05/25 08:51:50;;;;;;;5.95;0.80;;;23.20;85.90;;;;;;5031536;28;20099;-44
2023/05/25 08:54:30;;;;;;;0.68;0.45;;;23.90;78.70;;;;;;5031745;28;20103;-53
2023/05/25 08:57:04;;;;;;;2.00;0.50;;;24.80;73.70;;;;;;5031613;28;20018;-47
2023/05/25 08:59:58;;;;;;;0.70;0.60;;;25.60;73.50;;;;;;5031685;28;20038;-40
2023/05/25 09:02:33;;;;;;;1.42;0.60;;;26.30;74.40;;;;;;5031678;28;20030;-52
2023/05/25 09:05:00;;;;;;;0.95;0.40;;;26.50;66.20;;;;;;5030865;28;20041;-43
2023/05/25 09:07:27;;;;;;;0.50;0.40;;;26.80;65.70;;;;;;5031934;28;20059;-45
2023/05/25 09:09:53;;;;;;;1.88;0.60;;;26.10;63.80;;;;;;5031480;28;20032;-40
2023/05/25 09:12:20;;;;;;;1.23;0.60;;;26.00;71.10;;;;;;5031646;28;20029;-60
2023/05/25 09:14:46;;;;;;;1.50;0.60;;;26.00;77.70;;;;;;5030515;28;20431;-49
2023/05/25 09:17:17;;;;;;;3.20;0.60;;;26.20;69.80;;;;;;5026535;28;20368;-49
2023/05/25 09:19:43;;;;;;;1.50;0.60;;;25.70;66.60;;;;;;5030236;28;20026;-47
2023/05/25 09:22:12;;;;;;;0.85;0.40;;;26.00;64.80;;;;;;5030052;28;20029;-42
2023/05/25 09:24:40;;;;;;;0.95;0.57;;;25.90;65.20;;;;;;5030338;28;20028;-58
2023/05/25 09:27:09;;;;;;;2.23;0.63;;;26.20;66.90;;;;;;5019565;28;20133;-42
2023/05/25 09:29:35;;;;;;;0.82;0.40;;;26.20;68.50;;;;;;5019755;28;20022;-47
2023/05/25 09:32:04;;;;;;;0.73;0.50;;;26.20;69.90;;;;;;5027973;28;20060;-41
2023/05/25 09:34:33;;;;;;;1.92;0.40;;;26.20;64.60;;;;;;5027489;28;20024;-41
2023/05/25 09:37:02;;;;;;;2.33;0.80;;;25.60;65.00;;;;;;5029590;28;20060;-43
2023/05/25 09:39:27;;;;;;;0.93;0.43;;;25.30;64.80;;;;;;5030968;28;20052;-44
2023/05/25 09:41:53;;;;;;;1.92;0.60;;;25.60;70.30;;;;;;5030945;28;20332;-49
2023/05/25 09:44:19;;;;;;;1.42;0.50;;;25.70;67.90;;;;;;5029353;28;20022;-41
2023/05/25 09:46:45;;;;;;;1.52;0.63;;;26.30;69.70;;;;;;5030593;28;20064;-52
2023/05/25 09:49:11;;;;;;;2.08;0.80;;;26.80;67.60;;;;;;5030746;28;20025;-45
2023/05/25 09:51:37;;;;;;;1.85;0.68;;;27.30;66.80;;;;;;5030963;28;20080;-50
2023/05/25 09:54:03;;;;;;;1.00;0.70;;;27.40;68.90;;;;;;5030441;28;20476;-43
2023/05/25 09:56:32;;;;;;;1.55;0.40;;;27.70;69.90;;;;;;5030728;28;20124;-41
2023/05/25 09:58:58;;;;;;;1.42;0.73;;;27.40;64.10;;;;;;5030214;28;20013;-42
2023/05/25 10:01:24;;;;;;;1.85;0.73;;;27.10;63.50;;;;;;5017780;28;20030;-44
2023/05/25 10:03:50;;;;;;;1.25;0.70;;;26.40;67.40;;;;;;5030636;28;20159;-49
2023/05/25 10:06:19;;;;;;;3.70;0.60;;;25.60;65.60;;;;;;5030059;28;20052;-54
2023/05/25 10:08:47;;;;;;;0.47;0.47;;;24.90;70.30;;;;;;5030476;28;20116;-49
2023/05/25 10:11:13;;;;;;;2.88;0.93;;;24.30;69.30;;;;;;5028585;28;20041;-43
2023/05/25 10:13:41;;;;;;;1.17;0.65;;;23.70;69.30;;;;;;5023104;28;20052;-55
2023/05/25 10:16:11;;;;;;;1.77;0.50;;;23.00;68.10;;;;;;5027824;28;20026;-46
2023/05/25 10:18:42;;;;;;;3.67;0.80;;;22.60;71.70;;;;;;5023078;28;20034;-50
2023/05/25 10:21:09;;;;;;;1.20;0.98;;;22.30;72.90;;;;;;5029899;28;20052;-54
2023/05/25 10:23:43;;;;;;;1.10;0.70;;;22.10;73.40;;;;;;5029479;28;20108;-43
2023/05/25 10:26:12;;;;;;;1.52;0.60;;;22.00;77.00;;;;;;5030513;28;20385;-47
2023/05/25 10:28:40;;;;;;;2.28;0.77;;;21.80;76.10;;;;;;5029010;28;20045;-41
2023/05/25 10:31:07;;;;;;;1.67;0.60;;;21.90;76.40;;;;;;5030727;28;20037;-52
2023/05/25 10:33:33;;;;;;;3.17;0.57;;;22.40;72.80;;;;;;5030755;28;20044;-54
2023/05/25 10:36:02;;;;;;;0.98;0.43;;;22.60;74.00;;;;;;5028813;28;20101;-56
2023/05/25 10:38:30;;;;;;;0.70;0.57;;;22.80;74.60;;;;;;5030723;28;20033;-40
2023/05/25 10:40:58;;;;;;;1.42;0.70;;;23.00;71.00;;;;;;5030675;28;20143;-51
2023/05/25 10:43:26;;;;;;;1.77;0.75;;;22.90;74.70;;;;;;5030404;28;20117;-51
2023/05/25 10:45:52;;;;;;;3.45;0.82;;;22.70;78.10;;;;;;5017854;28;20547;-51
2023/05/25 10:48:18;;;;;;;1.63;0.43;;;22.40;76.60;;;;;;5033657;28;20029;-47
2023/05/25 10:50:49;;;;;;;1.35;0.70;;;22.20;75.00;;;;;;5034030;28;20095;-47
2023/05/25 10:53:15;;;;;;;0.90;0.50;;;21.70;71.00;;;;;;5020378;28;20511;-42
2023/05/25 10:56:05;;;;;;;1.08;0.50;;;21.50;76.30;;;;;;5034399;28;20759;-46
2023/05/25 10:58:31;;;;;;;5.00;0.77;;;21.40;77.90;;;;;;5021755;28;20048;-44
2023/05/25 11:01:00;;;;;;;1.15;0.52;;;21.40;74.40;;;;;;5017901;28;20018;-50
2023/05/25 11:03:44;;;;;;;1.73;0.60;;;21.50;76.10;;;;;;5023489;28;20048;-56
2023/05/25 11:06:20;;;;;;;1.75;0.88;;;21.70;77.00;;;;;;5031260;28;20084;-55
2023/05/25 11:08:58;;;;;;;3.83;0.70;;;21.80;74.80;;;;;;5026923;28;20537;-56
2023/05/25 11:11:42;;;;;;;0.95;0.50;;;22.60;78.10;;;;;;5029632;28;20025;-44
2023/05/25 11:14:30;;;;;;;0.73;0.50;;;22.80;74.20;;;;;;5033305;28;20021;-50
2023/05/25 11:17:17;;;;;;;1.63;0.70;;;23.20;75.00;;;;;;5031804;28;20025;-49
2023/05/25 11:19:54;;;;;;;4.03;0.70;;;23.30;74.10;;;;;;5032317;28;20043;-47
2023/05/25 11:22:22;;;;;;;0.95;0.50;;;23.10;73.20;;;;;;5033913;28;20029;-48
2023/05/25 11:24:52;;;;;;;0.77;0.50;;;22.80;74.00;;;;;;5033553;28;20151;-48
2023/05/25 11:27:29;;;;;;;2.72;0.57;;;23.10;75.00;;;;;;5032397;28;20037;-51
2023/05/25 11:29:57;;;;;;;1.15;0.70;;;22.90;73.50;;;;;;5033488;28;20055;-53
2023/05/25 11:32:25;;;;;;;1.38;0.60;;;22.70;73.50;;;;;;5031607;28;20041;-52
2023/05/25 11:34:56;;;;;;;0.77;0.50;;;22.60;72.10;;;;;;5032118;28;20022;-51
2023/05/25 11:37:25;;;;;;;1.23;0.70;;;22.80;77.20;;;;;;5031908;28;20029;-52
2023/05/25 11:39:51;;;;;;;0.60;0.45;;;22.70;72.00;;;;;;5031638;28;20032;-49
2023/05/25 11:42:20;;;;;;;1.88;0.70;;;22.70;74.50;;;;;;5031549;28;20037;-47
2023/05/25 11:44:46;;;;;;;1.75;0.52;;;23.20;73.60;;;;;;5032094;28;20519;-51
2023/05/25 11:47:13;;;;;;;1.33;0.77;;;23.30;71.10;;;;;;5032897;28;20041;-47
2023/05/25 11:49:48;;;;;;;1.58;0.80;;;22.90;70.90;;;;;;5033326;28;20025;-45
2023/05/25 11:52:15;;;;;;;0.85;0.60;;;22.50;73.70;;;;;;5033507;28;20083;-46
2023/05/25 11:54:41;;;;;;;5.10;0.68;;;22.20;71.40;;;;;;5033233;28;20049;-43
2023/05/25 11:57:18;;;;;;;2.75;0.77;;;22.20;73.70;;;;;;5033237;28;20029;-46
2023/05/25 12:00:05;;;;;;;1.75;0.70;;;22.70;73.60;;;;;;5033080;28;20083;-47
2023/05/25 12:02:37;;;;;;;1.58;0.68;;;23.20;73.20;;;;;;5033281;28;20022;-43
2023/05/25 12:05:03;;;;;;;1.42;0.60;;;23.30;74.10;;;;;;5032754;28;20128;-44
2023/05/25 12:07:30;;;;;;;0.80;0.60;;;23.30;77.60;;;;;;5032642;28;20036;-46
2023/05/25 12:10:16;;;;;;;2.25;0.70;;;23.10;71.10;;;;;;5031500;28;20392;-45
2023/05/25 12:12:51;;;;;;;0.73;0.43;;;22.80;72.40;;;;;;5032829;28;20022;-43
2023/05/25 12:15:21;;;;;;;2.30;0.73;;;22.60;72.00;;;;;;5032677;28;20045;-50
2023/05/25 12:17:48;;;;;;;0.55;0.50;;;22.40;72.00;;;;;;5032312;28;20105;-43
2023/05/25 12:20:15;;;;;;;1.90;0.73;;;22.20;73.10;;;;;;5032748;28;20025;-40
2023/05/25 12:22:42;;;;;;;1.15;0.70;;;22.00;74.20;;;;;;5031708;28;20531;-58
2023/05/25 12:25:10;;;;;;;1.52;0.77;;;22.00;76.10;;;;;;5032750;28;20064;-44
2023/05/25 12:27:37;;;;;;;0.65;0.50;;;22.00;73.90;;;;;;5032787;28;20075;-48
2023/05/25 12:30:08;;;;;;;2.95;0.75;;;22.00;76.10;;;;;;5032350;28;20029;-56
2023/05/25 12:32:35;;;;;;;1.25;0.57;;;22.10;76.30;;;;;;5032677;28;20025;-57
2023/05/25 12:35:05;;;;;;;0.73;0.50;;;22.00;76.40;;;;;;5032484;28;20025;-53
2023/05/25 12:37:32;;;;;;;1.77;0.70;;;21.90;76.50;;;;;;5032551;28;20162;-51
2023/05/25 12:39:58;;;;;;;1.17;0.70;;;21.80;72.40;;;;;;5032488;28;20026;-59
2023/05/25 12:42:28;;;;;;;1.52;0.60;;;21.70;76.10;;;;;;5031858;28;20021;-49
2023/05/25 12:45:00;;;;;;;1.38;0.93;;;21.50;74.00;;;;;;5032268;28;20048;-40
2023/05/25 12:47:31;;;;;;;2.45;0.80;;;21.50;76.40;;;;;;5026499;28;20697;-45